Time;durP1;ratioP1;P1;durP2;ratioP2;P2;SDS_P1;SDS_P2;PMS_P1;PMS_P2;Temp;Humidity;BMP_temperature;BMP_pressure;BME280_temperature;BME280_humidity;BME280_pressure;Samples;Min_cycle;Max_cycle;Signal;HPM_P1;HPM_P2
2021/12/10 00:00:51;;;;;;;49.45;31.50;;;7.20;99.90;;;;;;5052146;28;20048;-69
2021/12/10 00:03:29;;;;;;;47.38;29.48;;;7.20;99.90;;;;;;5053200;28;20041;-69
2021/12/10 00:06:13;;;;;;;47.38;30.50;;;7.20;99.90;;;;;;5051945;28;20029;-70
2021/12/10 00:08:43;;;;;;;48.72;31.38;;;7.20;99.90;;;;;;5055493;28;20116;-70
2021/12/10 00:11:18;;;;;;;54.90;34.03;;;7.20;99.90;;;;;;5066549;28;20025;-68
2021/12/10 00:13:46;;;;;;;47.22;29.80;;;7.30;99.90;;;;;;5061973;28;20052;-69
2021/12/10 00:16:14;;;;;;;60.97;36.45;;;7.20;99.90;;;;;;5057368;28;20110;-69
2021/12/10 00:18:47;;;;;;;47.88;31.05;;;7.30;99.90;;;;;;5055919;28;20028;-70
2021/12/10 00:21:12;;;;;;;57.60;35.47;;;7.30;99.90;;;;;;5057084;28;20355;-70
2021/12/10 00:23:38;;;;;;;48.63;31.73;;;7.30;99.90;;;;;;5057264;28;20021;-70
2021/12/10 00:26:06;;;;;;;48.53;31.83;;;7.30;99.90;;;;;;5056615;28;20040;-70
2021/12/10 00:28:38;;;;;;;51.05;30.98;;;7.30;99.90;;;;;;5055493;28;20021;-69
2021/12/10 00:31:30;;;;;;;51.58;33.13;;;7.40;99.90;;;;;;5055547;28;20033;-70
2021/12/10 00:34:14;;;;;;;80.32;41.63;;;7.40;99.90;;;;;;5055596;28;20035;-69
2021/12/10 00:36:40;;;;;;;48.60;31.05;;;7.40;99.90;;;;;;5056726;28;20025;-69
2021/12/10 00:39:29;;;;;;;48.55;32.33;;;7.40;99.90;;;;;;5056455;28;20467;-69
2021/12/10 00:41:57;;;;;;;58.28;34.17;;;7.40;99.90;;;;;;5056993;28;20067;-69
2021/12/10 00:44:23;;;;;;;44.53;28.77;;;7.40;99.90;;;;;;5055983;28;20021;-69
2021/12/10 00:46:49;;;;;;;49.72;31.00;;;7.40;99.90;;;;;;5055158;28;20099;-69
2021/12/10 00:49:14;;;;;;;42.13;26.92;;;7.40;99.90;;;;;;5055068;28;20056;-69
2021/12/10 00:51:41;;;;;;;40.30;26.63;;;7.40;99.90;;;;;;5055304;28;20067;-70
2021/12/10 00:54:09;;;;;;;38.72;26.50;;;7.50;99.90;;;;;;5055089;28;20025;-69
2021/12/10 00:56:35;;;;;;;40.42;26.45;;;7.50;99.90;;;;;;5056522;28;20029;-69
2021/12/10 00:59:01;;;;;;;40.65;26.50;;;7.50;99.90;;;;;;5056010;28;20082;-69
2021/12/10 01:01:31;;;;;;;43.45;28.95;;;7.50;99.90;;;;;;5061067;28;20044;-70
2021/12/10 01:04:11;;;;;;;44.42;28.95;;;7.60;99.90;;;;;;5077275;28;20051;-69
2021/12/10 01:06:39;;;;;;;45.72;30.35;;;7.60;99.90;;;;;;5086192;28;20074;-70
2021/12/10 01:09:15;;;;;;;43.10;28.40;;;7.60;99.90;;;;;;5061889;28;20047;-70
2021/12/10 01:11:52;;;;;;;40.85;27.05;;;7.60;99.90;;;;;;5058014;28;20027;-69
2021/12/10 01:15:38;;;;;;;43.67;27.15;;;7.60;99.90;;;;;;5076154;28;20036;-69
2021/12/10 01:26:06;;;;;;;47.95;31.10;;;7.50;99.90;;;;;;5076289;28;20047;-69
2021/12/10 01:28:33;;;;;;;60.85;36.45;;;7.50;99.90;;;;;;5075609;28;20024;-69
2021/12/10 01:30:58;;;;;;;86.45;52.95;;;7.60;99.90;;;;;;5057938;28;20379;-69
2021/12/10 01:33:24;;;;;;;80.97;41.80;;;7.50;99.90;;;;;;5057647;28;20032;-69
2021/12/10 01:35:54;;;;;;;90.20;43.53;;;7.60;99.90;;;;;;5075447;28;20035;-69
2021/12/10 01:38:21;;;;;;;71.60;35.58;;;7.60;99.90;;;;;;5057398;28;20074;-70
2021/12/10 01:40:51;;;;;;;88.05;40.75;;;7.60;99.90;;;;;;5057402;28;20090;-70
2021/12/10 01:43:23;;;;;;;122.45;39.13;;;7.60;99.90;;;;;;5057884;28;20044;-69
2021/12/10 01:46:02;;;;;;;107.82;35.35;;;7.60;99.90;;;;;;5057179;28;20059;-70
2021/12/10 01:48:34;;;;;;;164.18;40.00;;;7.60;99.90;;;;;;5057247;28;20027;-70
2021/12/10 01:51:03;;;;;;;149.20;38.38;;;7.60;99.90;;;;;;5057030;28;20032;-69
2021/12/10 01:53:34;;;;;;;209.05;45.83;;;7.60;99.90;;;;;;5075180;28;20024;-69
2021/12/10 01:56:03;;;;;;;160.25;39.50;;;7.60;99.90;;;;;;5057239;28;20034;-69
2021/12/10 01:58:32;;;;;;;210.82;40.65;;;7.60;99.90;;;;;;5075123;28;20026;-70
2021/12/10 02:01:06;;;;;;;171.98;38.88;;;7.70;99.90;;;;;;5085364;28;20024;-70
2021/12/10 02:03:32;;;;;;;163.32;41.30;;;7.60;99.90;;;;;;5081148;28;20459;-69
2021/12/10 02:05:59;;;;;;;154.85;38.75;;;7.60;99.90;;;;;;5056947;28;20024;-70
2021/12/10 02:08:25;;;;;;;156.32;42.50;;;7.70;99.90;;;;;;5056831;28;20029;-69
2021/12/10 02:10:51;;;;;;;148.25;40.38;;;7.70;99.90;;;;;;5074781;28;20028;-70
2021/12/10 02:13:17;;;;;;;108.85;35.30;;;7.70;99.90;;;;;;5056922;28;20549;-70
2021/12/10 02:15:43;;;;;;;107.28;34.63;;;7.60;99.90;;;;;;5056927;28;20024;-69
2021/12/10 02:18:12;;;;;;;57.78;26.45;;;7.70;99.90;;;;;;5056627;28;20021;-70
2021/12/10 02:21:03;;;;;;;62.33;27.73;;;7.60;99.90;;;;;;5056525;28;20024;-70
2021/12/10 02:23:38;;;;;;;51.30;24.63;;;7.60;99.90;;;;;;5074687;28;20055;-70
2021/12/10 02:26:05;;;;;;;;;;;7.60;99.90;;;;;;5056845;28;20032;-69
2021/12/10 02:28:31;;;;;;;40.40;22.17;;;7.60;99.90;;;;;;5056615;28;19908;-68
2021/12/10 02:30:59;;;;;;;34.33;20.05;;;7.50;99.90;;;;;;5056195;28;20550;-69
2021/12/10 02:33:26;;;;;;;25.50;15.65;;;7.50;99.90;;;;;;5083913;28;20027;-69
2021/12/10 02:35:52;;;;;;;21.05;13.30;;;7.50;99.90;;;;;;5094142;28;20024;-69
2021/12/10 02:38:20;;;;;;;19.98;12.50;;;7.50;99.90;;;;;;5094655;28;20370;-69
2021/12/10 02:40:47;;;;;;;19.70;12.60;;;7.40;99.90;;;;;;5094397;28;20031;-69
2021/12/10 02:43:14;;;;;;;21.10;12.43;;;7.50;99.90;;;;;;5094699;28;20481;-69
2021/12/10 02:45:47;;;;;;;20.63;13.25;;;7.40;99.90;;;;;;5094711;28;20375;-69
2021/12/10 02:48:13;;;;;;;20.95;13.27;;;7.40;99.90;;;;;;5094714;28;20028;-69
2021/12/10 02:50:39;;;;;;;23.75;14.13;;;7.50;99.90;;;;;;5093188;28;20381;-69
2021/12/10 02:53:08;;;;;;;23.70;14.00;;;7.50;99.90;;;;;;5093198;28;20036;-69
2021/12/10 02:55:34;;;;;;;25.23;14.80;;;7.50;99.90;;;;;;5105704;28;20031;-68
2021/12/10 02:58:06;;;;;;;22.83;14.98;;;7.50;99.90;;;;;;5110585;28;20028;-70
2021/12/10 03:00:38;;;;;;;23.13;14.50;;;7.50;99.90;;;;;;5076787;28;20090;-69
2021/12/10 03:03:04;;;;;;;24.20;13.95;;;7.50;99.90;;;;;;5076015;28;20166;-70
2021/12/10 03:05:30;;;;;;;26.52;15.93;;;7.50;99.90;;;;;;5094082;28;20145;-70
2021/12/10 03:07:57;;;;;;;25.58;14.95;;;7.50;99.90;;;;;;5092862;28;20502;-70
2021/12/10 03:10:27;;;;;;;30.27;16.83;;;7.50;99.90;;;;;;5093691;28;20079;-71
2021/12/10 03:12:53;;;;;;;24.02;14.77;;;7.50;99.90;;;;;;5093863;28;20028;-71
2021/12/10 03:15:22;;;;;;;23.10;14.60;;;7.40;99.90;;;;;;5094259;28;20469;-70
2021/12/10 03:17:49;;;;;;;22.17;14.13;;;7.40;99.90;;;;;;5094014;28;20020;-69
2021/12/10 03:20:19;;;;;;;23.50;14.88;;;7.30;99.90;;;;;;5075742;28;20497;-69
2021/12/10 03:22:45;;;;;;;19.83;13.98;;;7.30;99.90;;;;;;5094200;28;20097;-69
2021/12/10 03:25:15;;;;;;;21.20;14.27;;;7.30;99.90;;;;;;5075642;28;20532;-69
2021/12/10 03:27:41;;;;;;;19.33;13.45;;;7.30;99.90;;;;;;5092448;28;20052;-69
2021/12/10 03:30:11;;;;;;;22.88;15.10;;;7.20;99.90;;;;;;5092705;28;20123;-69
2021/12/10 03:32:39;;;;;;;18.70;12.50;;;7.10;99.90;;;;;;5092645;28;20161;-69
2021/12/10 03:35:13;;;;;;;18.45;13.25;;;7.10;99.90;;;;;;5093646;28;20028;-70
2021/12/10 03:37:40;;;;;;;19.20;12.88;;;7.10;99.90;;;;;;5092533;28;20066;-68
2021/12/10 03:40:08;;;;;;;19.60;13.02;;;7.10;99.90;;;;;;5092279;28;20028;-69
2021/12/10 03:42:33;;;;;;;19.50;13.70;;;7.00;99.90;;;;;;5093721;28;20028;-69
2021/12/10 03:45:00;;;;;;;19.15;13.18;;;7.00;99.90;;;;;;5097816;28;20389;-68
2021/12/10 03:47:25;;;;;;;18.58;12.98;;;7.00;99.90;;;;;;5102215;28;20024;-70
2021/12/10 03:49:52;;;;;;;22.73;13.85;;;7.00;99.90;;;;;;5105369;28;20043;-68
2021/12/10 03:52:17;;;;;;;22.73;14.55;;;7.00;99.90;;;;;;5105165;28;20021;-69
2021/12/10 03:54:44;;;;;;;21.58;14.55;;;7.00;99.90;;;;;;5098626;28;20031;-68
2021/12/10 03:57:10;;;;;;;20.17;13.68;;;6.90;99.90;;;;;;5096788;28;20412;-68
2021/12/10 03:59:37;;;;;;;22.33;14.65;;;6.90;99.90;;;;;;5097468;28;20036;-68
2021/12/10 04:02:05;;;;;;;22.67;15.30;;;6.90;99.90;;;;;;5095893;28;20044;-69
2021/12/10 04:04:36;;;;;;;22.98;14.88;;;6.80;99.90;;;;;;5097179;28;20028;-69
2021/12/10 04:07:06;;;;;;;26.35;16.60;;;6.80;99.90;;;;;;5095969;28;20035;-68
2021/12/10 04:09:32;;;;;;;28.67;17.60;;;6.80;99.90;;;;;;5095929;28;20032;-69
2021/12/10 04:11:59;;;;;;;26.55;16.88;;;6.70;99.90;;;;;;5096004;28;20036;-69
2021/12/10 04:14:25;;;;;;;29.33;18.33;;;6.70;99.90;;;;;;5079114;28;20028;-68
2021/12/10 04:16:56;;;;;;;33.53;21.30;;;6.70;99.90;;;;;;5095837;28;20024;-69
2021/12/10 04:19:26;;;;;;;39.05;26.98;;;6.70;99.90;;;;;;5095954;28;20053;-68
2021/12/10 04:21:56;;;;;;;39.72;26.73;;;6.60;99.90;;;;;;5096274;28;20458;-70
2021/12/10 04:24:24;;;;;;;35.63;22.95;;;6.60;99.90;;;;;;5097369;28;20039;-70
2021/12/10 04:26:51;;;;;;;41.05;25.65;;;6.60;99.90;;;;;;5096989;28;20027;-70
2021/12/10 04:29:20;;;;;;;37.90;24.67;;;6.60;99.90;;;;;;5096876;28;20093;-70
2021/12/10 04:31:53;;;;;;;43.13;25.65;;;6.50;99.90;;;;;;5096943;28;20122;-69
2021/12/10 04:34:21;;;;;;;41.03;25.70;;;6.50;99.90;;;;;;5095689;28;20024;-70
2021/12/10 04:36:48;;;;;;;52.95;33.92;;;6.40;99.90;;;;;;5077273;28;20035;-70
2021/12/10 04:39:15;;;;;;;60.00;35.15;;;6.40;99.90;;;;;;5095567;28;20040;-70
2021/12/10 04:41:41;;;;;;;70.28;44.90;;;6.30;99.90;;;;;;5096235;28;20032;-70
2021/12/10 04:44:07;;;;;;;61.25;37.80;;;6.30;99.90;;;;;;5097126;28;20477;-70
2021/12/10 04:46:33;;;;;;;80.65;49.15;;;6.20;99.90;;;;;;5103851;28;20023;-70
2021/12/10 04:49:03;;;;;;;90.18;50.63;;;6.20;99.90;;;;;;5099497;28;20036;-69
2021/12/10 04:51:39;;;;;;;63.47;39.38;;;6.20;99.90;;;;;;5095483;28;20028;-71
2021/12/10 04:54:06;;;;;;;56.70;34.17;;;6.20;99.90;;;;;;5094766;28;20032;-70
2021/12/10 04:56:33;;;;;;;42.33;25.90;;;6.20;99.90;;;;;;5095034;28;20024;-70
2021/12/10 04:59:00;;;;;;;39.15;24.23;;;6.20;99.90;;;;;;5094990;28;20046;-70
2021/12/10 05:01:27;;;;;;;59.53;40.03;;;6.20;99.90;;;;;;5095707;28;20474;-70
2021/12/10 05:03:53;;;;;;;55.03;36.22;;;6.20;99.90;;;;;;5095068;28;20130;-69
2021/12/10 05:06:19;;;;;;;44.17;28.85;;;6.20;99.90;;;;;;5096044;28;20116;-69
2021/12/10 05:08:45;;;;;;;62.58;32.97;;;6.20;99.90;;;;;;5094779;28;20047;-69
2021/12/10 05:11:11;;;;;;;45.78;26.90;;;6.10;99.90;;;;;;5096134;28;20032;-70
2021/12/10 05:13:40;;;;;;;61.45;35.13;;;6.10;99.90;;;;;;5078612;28;20101;-69
2021/12/10 05:16:06;;;;;;;38.28;22.63;;;6.10;99.90;;;;;;5094825;28;20035;-70
2021/12/10 05:18:37;;;;;;;71.15;33.97;;;6.10;99.90;;;;;;5096074;28;20032;-70
2021/12/10 05:21:07;;;;;;;40.28;22.42;;;6.10;99.90;;;;;;5094838;28;20084;-70
2021/12/10 05:23:33;;;;;;;79.30;37.38;;;6.00;99.90;;;;;;5096157;28;20043;-69
2021/12/10 05:25:59;;;;;;;48.78;26.33;;;6.00;99.90;;;;;;5095856;28;20031;-69
2021/12/10 05:28:25;;;;;;;49.03;28.25;;;5.90;99.90;;;;;;5095546;28;20032;-69
2021/12/10 05:30:55;;;;;;;60.33;31.05;;;5.90;99.90;;;;;;5088041;28;20113;-71
2021/12/10 05:33:25;;;;;;;46.88;26.08;;;5.90;99.90;;;;;;5075809;28;20032;-69
2021/12/10 05:35:51;;;;;;;47.40;25.60;;;5.80;99.90;;;;;;5068223;28;20448;-69
2021/12/10 05:38:19;;;;;;;49.78;27.00;;;5.80;99.90;;;;;;5079132;28;20035;-70
2021/12/10 05:40:48;;;;;;;48.53;24.63;;;5.80;99.90;;;;;;5094491;28;20389;-70
2021/12/10 05:43:14;;;;;;;64.30;29.88;;;5.80;99.90;;;;;;5063686;28;20458;-69
2021/12/10 05:45:40;;;;;;;54.08;26.27;;;5.80;99.90;;;;;;5101903;28;20078;-73
2021/12/10 05:48:06;;;;;;;50.28;25.85;;;5.80;99.90;;;;;;5075861;28;20032;-69
2021/12/10 05:50:33;;;;;;;71.25;34.17;;;5.70;99.90;;;;;;5077804;28;20071;-72
2021/12/10 05:53:02;;;;;;;46.75;23.13;;;5.70;99.90;;;;;;5056920;28;20501;-70
2021/12/10 05:55:28;;;;;;;48.22;27.30;;;5.70;99.90;;;;;;5086744;28;20475;-71
2021/12/10 05:57:54;;;;;;;43.45;23.92;;;5.70;99.90;;;;;;5076313;28;20035;-70
2021/12/10 06:00:28;;;;;;;58.42;30.70;;;5.60;99.90;;;;;;5094432;28;20173;-70
2021/12/10 06:02:53;;;;;;;83.00;39.20;;;5.70;99.90;;;;;;5076352;28;20482;-69
2021/12/10 06:05:20;;;;;;;59.35;31.95;;;5.70;99.90;;;;;;5092243;28;20027;-70
2021/12/10 06:07:46;;;;;;;49.42;27.23;;;5.70;99.90;;;;;;5081587;28;20020;-70
2021/12/10 06:10:17;;;;;;;49.42;27.02;;;5.80;99.90;;;;;;5092569;28;20036;-70
2021/12/10 06:12:45;;;;;;;40.22;23.50;;;5.80;99.90;;;;;;5057044;28;20027;-70
2021/12/10 06:15:12;;;;;;;39.60;22.58;;;5.80;99.90;;;;;;5069020;28;20027;-70
2021/12/10 06:17:38;;;;;;;38.33;21.58;;;5.80;99.90;;;;;;5075627;28;20496;-69
2021/12/10 06:20:07;;;;;;;39.67;22.35;;;5.80;99.90;;;;;;5092912;28;20044;-70
2021/12/10 06:22:36;;;;;;;45.55;23.08;;;5.80;99.90;;;;;;5089227;28;20086;-69
2021/12/10 06:25:04;;;;;;;41.28;22.80;;;5.80;99.90;;;;;;5088270;28;20024;-70
2021/12/10 06:27:29;;;;;;;37.22;21.70;;;5.80;99.90;;;;;;5092822;28;20069;-69
2021/12/10 06:29:55;;;;;;;49.42;26.88;;;5.90;99.90;;;;;;5075744;28;20036;-69
2021/12/10 06:32:22;;;;;;;33.30;21.73;;;5.90;99.90;;;;;;5075423;28;20027;-70
2021/12/10 06:34:48;;;;;;;54.03;29.55;;;5.90;99.90;;;;;;5101233;28;20024;-71
2021/12/10 06:37:13;;;;;;;46.63;28.02;;;5.90;99.90;;;;;;5099855;28;20028;-70
2021/12/10 06:39:39;;;;;;;42.70;27.20;;;5.90;99.90;;;;;;5093175;28;20062;-70
2021/12/10 06:42:05;;;;;;;57.83;35.42;;;6.00;99.90;;;;;;5094203;28;20027;-69
2021/12/10 06:44:31;;;;;;;75.97;44.55;;;6.00;99.90;;;;;;5086039;28;20039;-69
2021/12/10 06:46:57;;;;;;;79.22;44.67;;;6.00;99.90;;;;;;5072296;28;20028;-70
2021/12/10 06:49:23;;;;;;;61.45;36.03;;;6.00;99.90;;;;;;5061136;28;20047;-70
2021/12/10 06:51:49;;;;;;;57.20;35.80;;;6.00;99.90;;;;;;5081540;28;20020;-70
2021/12/10 06:54:15;;;;;;;52.22;32.72;;;6.10;99.90;;;;;;5090111;28;20039;-70
2021/12/10 06:56:41;;;;;;;54.38;35.60;;;6.10;99.90;;;;;;5081962;28;20024;-70
2021/12/10 06:59:08;;;;;;;54.38;36.13;;;6.10;99.90;;;;;;5074967;28;20084;-71
2021/12/10 07:01:38;;;;;;;48.90;30.95;;;6.10;99.90;;;;;;5066566;28;20044;-69
2021/12/10 07:04:11;;;;;;;50.30;34.20;;;6.10;99.90;;;;;;5089007;28;20028;-72
2021/12/10 07:06:40;;;;;;;49.08;30.40;;;6.10;99.90;;;;;;5080741;28;20567;-70
2021/12/10 07:09:19;;;;;;;44.00;28.98;;;6.10;99.90;;;;;;5083378;28;20162;-71
2021/12/10 07:11:46;;;;;;;40.33;25.60;;;6.20;99.90;;;;;;5070577;28;20370;-71
2021/12/10 07:14:12;;;;;;;40.85;25.52;;;6.20;99.90;;;;;;5086595;28;20028;-69
2021/12/10 07:16:38;;;;;;;41.85;27.40;;;6.20;99.90;;;;;;5078790;28;20028;-68
2021/12/10 07:19:06;;;;;;;44.42;28.25;;;6.20;99.90;;;;;;5084831;28;20077;-71
2021/12/10 07:21:33;;;;;;;43.08;25.48;;;6.30;99.90;;;;;;5078463;28;20024;-70
2021/12/10 07:24:05;;;;;;;40.83;26.05;;;6.40;99.90;;;;;;5084912;28;20031;-72
2021/12/10 07:26:32;;;;;;;41.88;26.50;;;6.40;99.90;;;;;;5069792;28;20471;-70
2021/12/10 07:28:59;;;;;;;47.60;28.85;;;6.40;99.90;;;;;;5096802;28;20070;-70
2021/12/10 07:31:25;;;;;;;57.15;39.30;;;6.40;99.90;;;;;;5094132;28;20416;-71
2021/12/10 07:33:50;;;;;;;41.88;28.17;;;6.50;99.90;;;;;;5085334;28;20070;-71
2021/12/10 07:36:18;;;;;;;42.20;27.45;;;6.40;99.90;;;;;;5088206;28;20025;-72
2021/12/10 07:38:44;;;;;;;46.72;31.42;;;6.50;99.90;;;;;;5083432;28;20035;-70
2021/12/10 07:41:10;;;;;;;47.90;33.53;;;6.60;99.90;;;;;;5086478;28;20072;-71
2021/12/10 07:43:37;;;;;;;45.05;29.80;;;6.60;99.90;;;;;;5070812;28;20419;-70
2021/12/10 07:46:04;;;;;;;42.75;28.38;;;6.60;99.90;;;;;;5089990;28;20043;-70
2021/12/10 07:48:30;;;;;;;41.95;27.63;;;6.70;99.90;;;;;;5068100;28;20028;-70
2021/12/10 07:51:04;;;;;;;37.78;24.73;;;6.70;99.90;;;;;;5085751;28;20106;-70
2021/12/10 07:53:32;;;;;;;38.72;24.58;;;6.70;99.90;;;;;;5080035;28;20106;-69
2021/12/10 07:56:01;;;;;;;38.15;24.63;;;6.70;99.90;;;;;;5071852;28;20024;-70
2021/12/10 07:58:29;;;;;;;37.95;23.77;;;6.60;99.90;;;;;;5080167;28;20588;-70
2021/12/10 08:00:55;;;;;;;40.47;26.70;;;6.60;99.90;;;;;;5081060;28;20033;-71
2021/12/10 08:03:23;;;;;;;39.65;25.88;;;6.60;99.90;;;;;;5083837;28;20033;-69
2021/12/10 08:05:50;;;;;;;41.05;27.10;;;6.50;99.90;;;;;;5079603;28;20035;-71
2021/12/10 08:08:18;;;;;;;39.65;25.30;;;6.60;99.90;;;;;;5060495;28;20047;-74
2021/12/10 08:10:48;;;;;;;43.08;28.48;;;6.60;99.90;;;;;;5066614;28;20058;-72
2021/12/10 08:13:16;;;;;;;42.15;28.50;;;6.60;99.90;;;;;;5068417;28;20040;-68
2021/12/10 08:15:41;;;;;;;41.50;26.92;;;6.60;99.90;;;;;;5081543;28;20055;-71
2021/12/10 08:18:07;;;;;;;37.90;26.23;;;6.60;99.90;;;;;;5079160;28;20082;-68
2021/12/10 08:20:34;;;;;;;48.38;31.88;;;6.60;99.90;;;;;;5094523;28;20031;-71
2021/12/10 08:23:00;;;;;;;40.40;26.83;;;6.70;99.90;;;;;;5070996;28;20024;-68
2021/12/10 08:25:28;;;;;;;36.97;25.45;;;6.70;99.90;;;;;;5085313;28;20081;-68
2021/12/10 08:27:55;;;;;;;51.67;35.28;;;6.70;99.90;;;;;;5087435;28;20406;-68
2021/12/10 08:30:24;;;;;;;50.63;34.72;;;6.80;99.90;;;;;;5084937;28;20391;-68
2021/12/10 08:32:53;;;;;;;44.20;29.48;;;6.90;99.90;;;;;;5077362;28;20052;-68
2021/12/10 08:35:20;;;;;;;44.53;28.88;;;6.90;99.90;;;;;;5095967;28;20028;-68
2021/12/10 08:37:46;;;;;;;40.40;27.02;;;6.90;99.90;;;;;;5096326;28;20035;-68
2021/12/10 08:40:17;;;;;;;43.75;27.25;;;7.00;99.90;;;;;;5096965;28;20028;-68
2021/12/10 08:42:43;;;;;;;46.55;30.40;;;6.90;99.90;;;;;;5096597;28;20087;-69
2021/12/10 08:45:09;;;;;;;44.10;28.23;;;7.00;99.90;;;;;;5095796;28;20038;-67
2021/12/10 08:47:35;;;;;;;46.17;30.92;;;7.00;99.90;;;;;;5078586;28;20028;-68
2021/12/10 08:50:03;;;;;;;55.67;33.22;;;7.00;99.90;;;;;;5096482;28;20478;-69
2021/12/10 08:52:29;;;;;;;41.38;27.20;;;7.00;99.90;;;;;;5096543;28;20032;-68
2021/12/10 08:54:54;;;;;;;47.63;30.25;;;7.00;99.90;;;;;;5096835;28;20028;-68
2021/12/10 08:57:21;;;;;;;47.30;29.20;;;7.00;99.90;;;;;;5096968;28;20425;-69
2021/12/10 08:59:47;;;;;;;46.88;28.27;;;7.00;99.90;;;;;;5096583;28;20028;-67
2021/12/10 09:02:15;;;;;;;49.30;31.13;;;7.00;99.90;;;;;;5096498;28;20121;-67
2021/12/10 09:04:41;;;;;;;53.72;33.53;;;7.00;99.90;;;;;;5095013;28;20028;-68
2021/12/10 09:07:11;;;;;;;52.10;33.45;;;7.00;99.90;;;;;;5095055;28;20082;-68
2021/12/10 09:09:40;;;;;;;69.05;43.30;;;7.00;99.90;;;;;;5096663;28;20040;-67
2021/12/10 09:12:12;;;;;;;69.28;45.00;;;7.00;99.90;;;;;;5097273;28;20085;-68
2021/12/10 09:14:45;;;;;;;63.58;40.50;;;7.00;99.90;;;;;;5083054;28;20040;-68
2021/12/10 09:17:17;;;;;;;59.17;37.70;;;7.00;99.90;;;;;;5102996;28;20454;-68
2021/12/10 09:19:43;;;;;;;58.05;35.60;;;7.00;99.90;;;;;;5078989;28;20035;-68
2021/12/10 09:22:09;;;;;;;58.42;36.30;;;7.00;99.90;;;;;;5096062;28;20027;-68
2021/12/10 09:24:36;;;;;;;59.67;35.53;;;7.00;99.90;;;;;;5095858;28;20035;-68
2021/12/10 09:27:03;;;;;;;64.40;38.90;;;7.10;99.90;;;;;;5095828;28;20028;-68
2021/12/10 09:29:35;;;;;;;68.70;43.65;;;7.10;99.90;;;;;;5096357;28;20032;-69
2021/12/10 09:32:06;;;;;;;79.10;48.78;;;7.10;99.90;;;;;;5095784;28;20035;-68
2021/12/10 09:34:32;;;;;;;71.00;44.00;;;7.20;99.90;;;;;;5077408;28;20028;-68
2021/12/10 09:36:57;;;;;;;89.05;53.38;;;7.20;99.90;;;;;;5077554;28;20027;-67
2021/12/10 09:39:24;;;;;;;94.13;60.17;;;7.20;99.90;;;;;;5095354;28;20028;-68
2021/12/10 09:41:51;;;;;;;78.95;50.65;;;7.20;99.90;;;;;;5095153;28;20026;-68
2021/12/10 09:44:18;;;;;;;95.70;57.88;;;7.30;99.90;;;;;;5077467;28;20107;-68
2021/12/10 09:46:45;;;;;;;75.32;43.85;;;7.30;99.90;;;;;;5095899;28;20077;-68
2021/12/10 09:49:11;;;;;;;91.38;52.03;;;7.20;99.90;;;;;;5095534;28;20059;-68
2021/12/10 09:51:44;;;;;;;77.07;46.25;;;7.30;99.90;;;;;;5095527;28;20077;-68
2021/12/10 09:54:13;;;;;;;89.50;53.42;;;7.30;99.90;;;;;;5077380;28;20020;-68
2021/12/10 09:56:52;;;;;;;73.50;46.28;;;7.30;99.90;;;;;;5077072;28;20028;-67
2021/12/10 09:59:19;;;;;;;69.70;39.80;;;7.30;99.90;;;;;;5077113;28;20073;-67
2021/12/10 10:01:47;;;;;;;77.30;44.85;;;7.30;99.90;;;;;;5095107;28;20051;-69
2021/12/10 10:04:18;;;;;;;77.13;46.22;;;7.30;99.90;;;;;;5077085;28;20028;-69
2021/12/10 10:07:00;;;;;;;74.60;45.60;;;7.40;99.90;;;;;;5077165;28;20034;-68
2021/12/10 10:09:27;;;;;;;73.65;42.90;;;7.40;99.90;;;;;;5083198;28;20024;-68
2021/12/10 10:12:09;;;;;;;71.82;43.95;;;7.40;99.90;;;;;;5101392;28;20557;-68
2021/12/10 10:14:38;;;;;;;84.57;52.60;;;7.40;99.90;;;;;;5100438;28;20032;-69
2021/12/10 10:17:04;;;;;;;78.30;43.63;;;7.40;99.90;;;;;;5077083;28;20462;-68
2021/12/10 10:19:30;;;;;;;76.70;42.45;;;7.40;99.90;;;;;;5076843;28;20456;-67
2021/12/10 10:21:57;;;;;;;88.35;51.10;;;7.30;99.90;;;;;;5076640;28;20031;-69
2021/12/10 10:24:26;;;;;;;82.97;46.45;;;7.30;99.90;;;;;;5094860;28;20397;-67
2021/12/10 10:27:03;;;;;;;83.05;46.70;;;7.20;99.90;;;;;;5094765;28;20028;-68
2021/12/10 10:29:32;;;;;;;93.25;50.28;;;7.20;99.90;;;;;;5076719;28;20028;-68
2021/12/10 10:32:08;;;;;;;89.95;48.47;;;7.10;99.90;;;;;;5094657;28;20024;-68
2021/12/10 10:34:37;;;;;;;87.03;46.67;;;7.10;99.90;;;;;;5076872;28;20024;-69
2021/12/10 10:37:03;;;;;;;89.78;49.55;;;7.10;99.90;;;;;;5076459;28;20089;-68
2021/12/10 10:39:33;;;;;;;85.47;46.35;;;7.10;99.90;;;;;;5094607;28;20051;-68
2021/12/10 10:42:00;;;;;;;80.22;46.83;;;7.10;99.90;;;;;;5094343;28;20486;-69
2021/12/10 10:44:26;;;;;;;88.40;50.35;;;7.10;99.90;;;;;;5094324;28;20055;-67
2021/12/10 10:46:56;;;;;;;86.45;49.97;;;7.10;99.90;;;;;;5076193;28;20099;-68
2021/12/10 10:49:47;;;;;;;86.18;52.03;;;7.20;99.90;;;;;;5094346;28;20030;-68
2021/12/10 10:52:19;;;;;;;80.30;44.80;;;7.20;99.90;;;;;;5075313;28;20028;-68
2021/12/10 10:54:46;;;;;;;79.88;45.38;;;7.20;99.90;;;;;;5075764;28;20124;-67
2021/12/10 10:57:18;;;;;;;74.38;44.78;;;7.20;99.90;;;;;;5075907;28;20020;-67
2021/12/10 10:59:46;;;;;;;69.28;40.40;;;7.20;99.90;;;;;;5080538;28;20474;-68
2021/12/10 11:02:12;;;;;;;66.53;40.22;;;7.30;99.90;;;;;;5073619;28;20135;-68
2021/12/10 11:04:49;;;;;;;69.28;39.28;;;7.30;99.90;;;;;;5100960;28;20024;-68
2021/12/10 11:07:24;;;;;;;66.63;39.10;;;7.30;99.90;;;;;;5100119;28;20043;-68
2021/12/10 11:09:54;;;;;;;60.92;36.78;;;7.30;99.90;;;;;;5094141;28;20466;-68
2021/12/10 11:12:28;;;;;;;59.35;36.72;;;7.30;99.90;;;;;;5095059;28;20060;-68
2021/12/10 11:14:57;;;;;;;57.97;35.28;;;7.30;99.90;;;;;;5093579;28;20050;-68
2021/12/10 11:17:35;;;;;;;60.97;36.35;;;7.30;99.90;;;;;;5094032;28;20024;-68
2021/12/10 11:20:20;;;;;;;54.45;32.72;;;7.30;99.90;;;;;;5091785;28;20035;-69
2021/12/10 11:22:57;;;;;;;52.22;32.63;;;7.20;99.90;;;;;;5093255;28;20063;-68
2021/12/10 11:25:34;;;;;;;61.60;34.40;;;7.20;99.90;;;;;;5092836;28;20213;-70
2021/12/10 11:28:13;;;;;;;63.03;37.25;;;7.20;99.90;;;;;;5092599;28;20077;-68
2021/12/10 11:30:52;;;;;;;47.63;30.60;;;7.10;99.90;;;;;;5093887;28;20032;-68
2021/12/10 11:33:24;;;;;;;54.47;33.53;;;7.10;99.90;;;;;;5094113;28;20074;-67
2021/12/10 11:35:54;;;;;;;55.72;34.88;;;7.00;99.90;;;;;;5092421;28;20020;-68
2021/12/10 11:38:24;;;;;;;58.65;37.28;;;7.00;99.90;;;;;;5092243;28;20031;-67
2021/12/10 11:41:11;;;;;;;59.78;37.67;;;6.90;99.90;;;;;;5092690;28;20055;-68
2021/12/10 11:44:17;;;;;;;55.50;34.00;;;7.00;99.90;;;;;;5092989;28;20024;-69
2021/12/10 11:47:23;;;;;;;49.92;32.20;;;7.00;99.90;;;;;;5092375;28;20028;-68
2021/12/10 11:49:47;;;;;;;45.70;30.17;;;7.00;99.90;;;;;;5093212;28;20044;-68
2021/12/10 11:52:18;;;;;;;47.83;29.83;;;7.00;99.90;;;;;;5092405;28;20397;-68
2021/12/10 11:55:05;;;;;;;45.85;29.73;;;7.00;99.90;;;;;;5092719;28;20051;-69
2021/12/10 11:57:36;;;;;;;43.70;30.10;;;7.10;99.90;;;;;;5092808;28;20035;-68
2021/12/10 12:00:14;;;;;;;48.25;30.83;;;7.00;99.90;;;;;;5098945;28;20059;-68
2021/12/10 12:02:51;;;;;;;43.13;29.77;;;7.10;99.90;;;;;;5097243;28;20123;-68
2021/12/10 12:05:24;;;;;;;46.25;29.95;;;7.10;99.90;;;;;;5098228;28;20085;-68
2021/12/10 12:07:52;;;;;;;47.30;31.52;;;7.10;99.90;;;;;;5096668;28;20058;-69
2021/12/10 12:10:26;;;;;;;48.15;32.33;;;7.20;99.90;;;;;;5097400;28;20051;-68
2021/12/10 12:13:02;;;;;;;42.92;31.58;;;7.30;99.90;;;;;;5096214;28;20024;-68
2021/12/10 12:15:30;;;;;;;39.40;28.88;;;7.30;99.90;;;;;;5097609;28;20417;-69
2021/12/10 12:18:00;;;;;;;43.80;29.17;;;7.40;99.90;;;;;;5095804;28;20073;-67
2021/12/10 12:20:48;;;;;;;46.85;32.13;;;7.50;99.90;;;;;;5096036;28;20024;-69
2021/12/10 12:26:28;;;;;;;36.13;26.77;;;7.60;99.90;;;;;;5097237;28;20036;-69
2021/12/10 12:29:09;;;;;;;40.75;27.60;;;7.80;99.90;;;;;;5096956;28;20047;-69
2021/12/10 12:31:48;;;;;;;37.60;27.40;;;7.80;99.90;;;;;;5096164;28;20496;-69
2021/12/10 12:34:23;;;;;;;39.45;28.30;;;7.90;99.90;;;;;;5095535;28;20039;-69
2021/12/10 12:36:52;;;;;;;43.45;32.78;;;7.90;99.90;;;;;;5095660;28;20038;-69
2021/12/10 12:39:32;;;;;;;50.30;38.50;;;8.00;99.90;;;;;;5095512;28;20028;-70
2021/12/10 12:42:01;;;;;;;43.10;33.20;;;7.90;99.90;;;;;;5095945;28;20031;-69
2021/12/10 12:44:35;;;;;;;54.40;39.47;;;8.00;99.90;;;;;;5095538;28;20432;-69
2021/12/10 12:47:29;;;;;;;48.22;35.17;;;8.00;99.90;;;;;;5096112;28;20020;-69
2021/12/10 12:50:06;;;;;;;42.20;31.85;;;8.00;99.90;;;;;;5096656;28;20027;-70
2021/12/10 12:52:45;;;;;;;39.85;28.98;;;8.10;99.90;;;;;;5097587;28;20055;-69
2021/12/10 12:55:13;;;;;;;35.92;27.13;;;8.10;99.90;;;;;;5106043;28;20107;-68
2021/12/10 12:57:42;;;;;;;33.15;24.45;;;8.10;99.90;;;;;;5101085;28;20103;-68
2021/12/10 13:00:14;;;;;;;37.90;25.90;;;8.20;99.90;;;;;;5095762;28;20480;-68